TimeMST,TemperatureF,Dew PointF,Humidity,Sea Level PressureIn,VisibilityMPH,Wind Direction,Wind SpeedMPH,Gust SpeedMPH,PrecipitationIn,Events,Conditions,WindDirDegrees,DateUTC
12:53 AM,19.9,10.0,65,30.04,10.0,WSW,5.8,-,N/A,,Clear,250,2013-02-08 07:53:00
1:53 AM,17.1,8.1,68,30.02,10.0,West,4.6,-,N/A,,Clear,270,2013-02-08 08:53:00
2:53 AM,17.1,9.0,71,30.01,10.0,West,8.1,-,N/A,,Clear,270,2013-02-08 09:53:00
3:53 AM,18.0,9.0,68,29.99,10.0,West,9.2,-,N/A,,Clear,260,2013-02-08 10:53:00
4:53 AM,19.0,7.0,59,30.00,10.0,WNW,9.2,-,N/A,,Clear,290,2013-02-08 11:53:00
5:53 AM,19.0,1.9,47,30.02,10.0,West,13.8,-,N/A,,Clear,280,2013-02-08 12:53:00
6:53 AM,27.0,-2.0,29,29.98,10.0,WNW,11.5,-,N/A,,Clear,290,2013-02-08 13:53:00
7:53 AM,25.0,1.9,37,29.99,10.0,Calm,Calm,-,N/A,,Clear,0,2013-02-08 14:53:00
8:53 AM,26.1,8.1,47,29.98,10.0,East,3.5,-,N/A,,Clear,80,2013-02-08 15:53:00
9:53 AM,33.1,8.1,35,29.93,10.0,East,4.6,-,N/A,,Clear,80,2013-02-08 16:53:00
10:53 AM,39.0,5.0,24,29.91,10.0,ESE,4.6,-,N/A,,Clear,110,2013-02-08 17:53:00
11:53 AM,43.0,1.9,18,29.88,10.0,East,9.2,-,N/A,,Clear,80,2013-02-08 18:53:00
12:53 PM,46.0,3.0,17,29.85,10.0,SE,11.5,-,N/A,,Clear,130,2013-02-08 19:53:00
1:53 PM,46.9,3.0,16,29.81,10.0,East,11.5,-,N/A,,Clear,100,2013-02-08 20:53:00
2:53 PM,46.9,6.1,19,29.80,10.0,ESE,11.5,-,N/A,,Clear,120,2013-02-08 21:53:00
3:53 PM,45.0,8.1,22,29.79,10.0,East,5.8,-,N/A,,Clear,90,2013-02-08 22:53:00
4:53 PM,39.9,10.0,29,29.81,10.0,ESE,4.6,-,N/A,,Clear,120,2013-02-08 23:53:00
5:53 PM,34.0,10.0,37,29.83,10.0,ESE,10.4,-,N/A,,Scattered Clouds,120,2013-02-09 00:53:00
6:53 PM,35.1,12.0,39,29.77,10.0,Calm,Calm,-,N/A,,Mostly Cloudy,0,2013-02-09 01:53:00
7:53 PM,33.1,12.0,42,29.78,10.0,ENE,4.6,-,N/A,,Clear,60,2013-02-09 02:53:00
8:53 PM,28.9,12.9,51,29.79,10.0,WNW,4.6,-,N/A,,Clear,300,2013-02-09 03:53:00
9:53 PM,25.0,10.9,55,29.78,10.0,WNW,4.6,-,N/A,,Clear,300,2013-02-09 04:53:00
10:53 PM,24.1,10.9,57,29.73,10.0,NW,5.8,-,N/A,,Clear,310,2013-02-09 05:53:00
11:53 PM,25.0,10.9,55,29.71,10.0,West,9.2,-,N/A,,Clear,280,2013-02-09 06:53:00